Godstone, United Kingdom
Current Conditions -  °F | °C
As of 1:50 PM on Wednesday 28 Jan 2015 (Local Time) from EGKB Reporting Station
Scattered Clouds Scattered Clouds  
Wind Chill: 35°   Ceiling: Unl
Heat Index: 43°   Visibility: 6mi
Dew Point: 32°   Wind: 16mph
Humidity: 66%   Direction: 290°WNW
Pressure: 29.53"   Gusts: 28mph
Location:  51.25°N, 0.07°W
Report Text: EGKB 281350Z 29014G24KT 250V310 9999 SCT030 06/00 Q1000
Loading
Personal Weather Stations






























Interactive Weather Map New forecast layout! Learn more

10-Day Weather Forecast

Advertisements
Track Severe Weather on mobile